sensor_id;sensor_type;location;lat;lon;timestamp;P1;durP1;ratioP1;P2;durP2;ratioP2
10823;SDS011;39116;59.332;18.034;2022-12-19T00:01:02;6.47;;;2.13;;
10823;SDS011;39116;59.332;18.034;2022-12-19T00:02:04;7.33;;;2.27;;
10823;SDS011;39116;59.332;18.034;2022-12-19T00:03:05;7.30;;;1.83;;
10823;SDS011;39116;59.332;18.034;2022-12-19T00:04:07;9.03;;;2.23;;
10823;SDS011;39116;59.332;18.034;2022-12-19T00:05:09;6.93;;;2.03;;
10823;SDS011;39116;59.332;18.034;2022-12-19T00:06:10;13.43;;;2.27;;
10823;SDS011;39116;59.332;18.034;2022-12-19T00:07:11;8.13;;;2.03;;
10823;SDS011;39116;59.332;18.034;2022-12-19T00:08:13;11.97;;;2.37;;
10823;SDS011;39116;59.332;18.034;2022-12-19T00:09:15;9.53;;;2.33;;
10823;SDS011;39116;59.332;18.034;2022-12-19T00:10:16;5.50;;;1.60;;
10823;SDS011;39116;59.332;18.034;2022-12-19T00:11:17;8.10;;;2.13;;
10823;SDS011;39116;59.332;18.034;2022-12-19T00:12:19;10.63;;;2.60;;
10823;SDS011;39116;59.332;18.034;2022-12-19T00:13:21;7.70;;;1.73;;
10823;SDS011;39116;59.332;18.034;2022-12-19T00:14:22;10.40;;;2.40;;
10823;SDS011;39116;59.332;18.034;2022-12-19T00:15:23;8.57;;;1.80;;
10823;SDS011;39116;59.332;18.034;2022-12-19T00:16:25;6.70;;;1.90;;
10823;SDS011;39116;59.332;18.034;2022-12-19T00:17:26;8.67;;;2.37;;
10823;SDS011;39116;59.332;18.034;2022-12-19T00:18:28;6.80;;;2.33;;
10823;SDS011;39116;59.332;18.034;2022-12-19T00:19:28;7.53;;;2.10;;
10823;SDS011;39116;59.332;18.034;2022-12-19T00:20:30;8.13;;;2.17;;
10823;SDS011;39116;59.332;18.034;2022-12-19T00:21:30;5.27;;;1.80;;
10823;SDS011;39116;59.332;18.034;2022-12-19T00:22:33;7.23;;;2.40;;
10823;SDS011;39116;59.332;18.034;2022-12-19T00:23:33;6.07;;;2.00;;
10823;SDS011;39116;59.332;18.034;2022-12-19T00:24:35;10.83;;;1.80;;
10823;SDS011;39116;59.332;18.034;2022-12-19T00:25:35;8.17;;;1.93;;
10823;SDS011;39116;59.332;18.034;2022-12-19T00:26:37;10.67;;;1.87;;
10823;SDS011;39116;59.332;18.034;2022-12-19T00:27:38;7.43;;;2.03;;
10823;SDS011;39116;59.332;18.034;2022-12-19T00:28:42;8.47;;;1.70;;
10823;SDS011;39116;59.332;18.034;2022-12-19T00:29:43;7.87;;;2.30;;
10823;SDS011;39116;59.332;18.034;2022-12-19T00:30:44;8.23;;;2.10;;
10823;SDS011;39116;59.332;18.034;2022-12-19T00:31:45;8.43;;;2.20;;
10823;SDS011;39116;59.332;18.034;2022-12-19T00:32:46;6.97;;;1.97;;
10823;SDS011;39116;59.332;18.034;2022-12-19T00:33:47;6.53;;;2.03;;
10823;SDS011;39116;59.332;18.034;2022-12-19T00:34:48;9.27;;;1.90;;
10823;SDS011;39116;59.332;18.034;2022-12-19T00:35:49;8.87;;;2.00;;
10823;SDS011;39116;59.332;18.034;2022-12-19T00:36:50;6.90;;;1.70;;
10823;SDS011;39116;59.332;18.034;2022-12-19T00:37:51;8.50;;;2.23;;
10823;SDS011;39116;59.332;18.034;2022-12-19T00:38:53;6.10;;;1.87;;
10823;SDS011;39116;59.332;18.034;2022-12-19T00:39:54;10.77;;;1.80;;
10823;SDS011;39116;59.332;18.034;2022-12-19T00:41:04;10.23;;;2.00;;
10823;SDS011;39116;59.332;18.034;2022-12-19T00:42:05;5.80;;;1.97;;
10823;SDS011;39116;59.332;18.034;2022-12-19T00:43:06;8.00;;;2.03;;
10823;SDS011;39116;59.332;18.034;2022-12-19T00:44:10;4.17;;;1.53;;
10823;SDS011;39116;59.332;18.034;2022-12-19T00:45:11;5.93;;;1.97;;
10823;SDS011;39116;59.332;18.034;2022-12-19T00:46:12;8.63;;;1.80;;
10823;SDS011;39116;59.332;18.034;2022-12-19T00:47:14;6.60;;;1.83;;
10823;SDS011;39116;59.332;18.034;2022-12-19T00:48:15;6.30;;;2.10;;
10823;SDS011;39116;59.332;18.034;2022-12-19T00:49:16;6.90;;;1.80;;
10823;SDS011;39116;59.332;18.034;2022-12-19T00:50:17;7.30;;;2.30;;
10823;SDS011;39116;59.332;18.034;2022-12-19T00:51:19;6.93;;;1.70;;
10823;SDS011;39116;59.332;18.034;2022-12-19T00:52:20;8.07;;;1.93;;
10823;SDS011;39116;59.332;18.034;2022-12-19T00:53:21;8.70;;;2.50;;
10823;SDS011;39116;59.332;18.034;2022-12-19T00:54:22;9.03;;;2.23;;
10823;SDS011;39116;59.332;18.034;2022-12-19T00:55:23;4.60;;;2.03;;
10823;SDS011;39116;59.332;18.034;2022-12-19T00:56:25;5.77;;;1.87;;
10823;SDS011;39116;59.332;18.034;2022-12-19T00:57:26;6.47;;;1.70;;
10823;SDS011;39116;59.332;18.034;2022-12-19T00:58:27;6.70;;;1.73;;
10823;SDS011;39116;59.332;18.034;2022-12-19T00:59:30;8.53;;;2.90;;
10823;SDS011;39116;59.332;18.034;2022-12-19T01:00:30;5.90;;;1.70;;
10823;SDS011;39116;59.332;18.034;2022-12-19T01:01:32;7.10;;;1.90;;
10823;SDS011;39116;59.332;18.034;2022-12-19T01:02:33;7.00;;;2.00;;
10823;SDS011;39116;59.332;18.034;2022-12-19T01:03:35;6.23;;;1.40;;
10823;SDS011;39116;59.332;18.034;2022-12-19T01:04:35;6.90;;;2.20;;
10823;SDS011;39116;59.332;18.034;2022-12-19T01:05:36;6.90;;;2.03;;
10823;SDS011;39116;59.332;18.034;2022-12-19T01:06:37;6.93;;;1.60;;
10823;SDS011;39116;59.332;18.034;2022-12-19T01:07:38;6.77;;;1.90;;
10823;SDS011;39116;59.332;18.034;2022-12-19T01:08:39;3.83;;;1.60;;
10823;SDS011;39116;59.332;18.034;2022-12-19T01:09:40;9.63;;;2.30;;
10823;SDS011;39116;59.332;18.034;2022-12-19T01:10:43;5.77;;;1.73;;
10823;SDS011;39116;59.332;18.034;2022-12-19T01:11:45;7.97;;;2.00;;
10823;SDS011;39116;59.332;18.034;2022-12-19T01:13:04;8.87;;;2.00;;
10823;SDS011;39116;59.332;18.034;2022-12-19T01:14:04;5.83;;;1.40;;
10823;SDS011;39116;59.332;18.034;2022-12-19T01:15:06;6.20;;;1.77;;
10823;SDS011;39116;59.332;18.034;2022-12-19T01:16:10;6.87;;;1.80;;
10823;SDS011;39116;59.332;18.034;2022-12-19T01:17:10;5.90;;;1.83;;
10823;SDS011;39116;59.332;18.034;2022-12-19T01:18:12;6.50;;;1.70;;
10823;SDS011;39116;59.332;18.034;2022-12-19T01:19:12;8.13;;;1.60;;
10823;SDS011;39116;59.332;18.034;2022-12-19T01:20:14;5.27;;;1.70;;
10823;SDS011;39116;59.332;18.034;2022-12-19T01:21:15;6.57;;;1.97;;
10823;SDS011;39116;59.332;18.034;2022-12-19T01:22:17;8.50;;;2.23;;
10823;SDS011;39116;59.332;18.034;2022-12-19T01:23:17;4.80;;;1.47;;
10823;SDS011;39116;59.332;18.034;2022-12-19T01:24:18;7.20;;;1.80;;
10823;SDS011;39116;59.332;18.034;2022-12-19T01:25:19;4.57;;;1.77;;
10823;SDS011;39116;59.332;18.034;2022-12-19T01:26:20;6.87;;;2.30;;
10823;SDS011;39116;59.332;18.034;2022-12-19T01:27:21;7.30;;;2.20;;
10823;SDS011;39116;59.332;18.034;2022-12-19T01:28:23;3.97;;;1.87;;
10823;SDS011;39116;59.332;18.034;2022-12-19T01:29:23;7.87;;;2.17;;
10823;SDS011;39116;59.332;18.034;2022-12-19T01:30:27;6.93;;;2.13;;
10823;SDS011;39116;59.332;18.034;2022-12-19T01:31:27;9.03;;;1.90;;
10823;SDS011;39116;59.332;18.034;2022-12-19T01:32:29;4.33;;;1.60;;
10823;SDS011;39116;59.332;18.034;2022-12-19T01:33:29;5.83;;;1.80;;
10823;SDS011;39116;59.332;18.034;2022-12-19T01:34:31;5.57;;;1.27;;
10823;SDS011;39116;59.332;18.034;2022-12-19T01:35:31;4.27;;;1.73;;
10823;SDS011;39116;59.332;18.034;2022-12-19T01:36:33;8.63;;;2.00;;
10823;SDS011;39116;59.332;18.034;2022-12-19T01:37:34;7.37;;;1.97;;
10823;SDS011;39116;59.332;18.034;2022-12-19T01:38:36;6.07;;;1.87;;
10823;SDS011;39116;59.332;18.034;2022-12-19T01:39:36;5.77;;;1.93;;
10823;SDS011;39116;59.332;18.034;2022-12-19T01:40:38;5.23;;;1.63;;
10823;SDS011;39116;59.332;18.034;2022-12-19T01:41:39;7.87;;;1.70;;
10823;SDS011;39116;59.332;18.034;2022-12-19T01:42:40;6.70;;;2.07;;
10823;SDS011;39116;59.332;18.034;2022-12-19T01:43:55;10.00;;;2.43;;
10823;SDS011;39116;59.332;18.034;2022-12-19T01:46:17;3.27;;;1.73;;
10823;SDS011;39116;59.332;18.034;2022-12-19T01:47:21;7.20;;;2.20;;
10823;SDS011;39116;59.332;18.034;2022-12-19T01:48:24;5.87;;;1.93;;
10823;SDS011;39116;59.332;18.034;2022-12-19T01:49:27;6.43;;;1.80;;
10823;SDS011;39116;59.332;18.034;2022-12-19T01:50:31;7.43;;;2.27;;
10823;SDS011;39116;59.332;18.034;2022-12-19T01:51:33;5.63;;;1.80;;
10823;SDS011;39116;59.332;18.034;2022-12-19T01:52:37;8.70;;;1.80;;
10823;SDS011;39116;59.332;18.034;2022-12-19T01:53:38;7.03;;;2.00;;
10823;SDS011;39116;59.332;18.034;2022-12-19T01:54:41;4.77;;;1.57;;
10823;SDS011;39116;59.332;18.034;2022-12-19T01:55:41;9.10;;;1.90;;
10823;SDS011;39116;59.332;18.034;2022-12-19T01:56:44;11.27;;;2.40;;
10823;SDS011;39116;59.332;18.034;2022-12-19T01:57:45;5.93;;;1.87;;
10823;SDS011;39116;59.332;18.034;2022-12-19T01:58:47;8.00;;;2.07;;
10823;SDS011;39116;59.332;18.034;2022-12-19T01:59:49;11.60;;;2.27;;
10823;SDS011;39116;59.332;18.034;2022-12-19T02:00:52;8.23;;;1.73;;
10823;SDS011;39116;59.332;18.034;2022-12-19T02:01:55;8.60;;;1.90;;
10823;SDS011;39116;59.332;18.034;2022-12-19T02:03:01;8.47;;;2.30;;
10823;SDS011;39116;59.332;18.034;2022-12-19T02:04:04;8.13;;;1.83;;
10823;SDS011;39116;59.332;18.034;2022-12-19T02:05:06;5.50;;;1.70;;
10823;SDS011;39116;59.332;18.034;2022-12-19T02:06:07;8.13;;;2.00;;
10823;SDS011;39116;59.332;18.034;2022-12-19T02:07:08;6.93;;;2.13;;
10823;SDS011;39116;59.332;18.034;2022-12-19T02:08:09;6.23;;;2.20;;
10823;SDS011;39116;59.332;18.034;2022-12-19T02:09:11;7.27;;;1.90;;
10823;SDS011;39116;59.332;18.034;2022-12-19T02:10:11;4.87;;;2.10;;
10823;SDS011;39116;59.332;18.034;2022-12-19T02:11:13;8.33;;;2.00;;
10823;SDS011;39116;59.332;18.034;2022-12-19T02:12:13;9.00;;;2.30;;
10823;SDS011;39116;59.332;18.034;2022-12-19T02:13:15;6.30;;;1.80;;
10823;SDS011;39116;59.332;18.034;2022-12-19T02:14:15;7.33;;;2.27;;
10823;SDS011;39116;59.332;18.034;2022-12-19T02:15:17;5.67;;;1.60;;
10823;SDS011;39116;59.332;18.034;2022-12-19T02:16:23;8.70;;;1.93;;
10823;SDS011;39116;59.332;18.034;2022-12-19T02:17:29;5.97;;;1.87;;
10823;SDS011;39116;59.332;18.034;2022-12-19T02:18:36;9.57;;;2.67;;
10823;SDS011;39116;59.332;18.034;2022-12-19T02:19:49;5.40;;;2.20;;
10823;SDS011;39116;59.332;18.034;2022-12-19T02:22:12;4.63;;;1.70;;
10823;SDS011;39116;59.332;18.034;2022-12-19T02:23:35;6.63;;;2.40;;
10823;SDS011;39116;59.332;18.034;2022-12-19T02:26:01;5.37;;;1.70;;
10823;SDS011;39116;59.332;18.034;2022-12-19T02:28:49;9.20;;;2.60;;
10823;SDS011;39116;59.332;18.034;2022-12-19T02:30:05;8.00;;;2.30;;
10823;SDS011;39116;59.332;18.034;2022-12-19T02:31:09;10.03;;;2.20;;
10823;SDS011;39116;59.332;18.034;2022-12-19T02:32:13;9.17;;;2.43;;
10823;SDS011;39116;59.332;18.034;2022-12-19T02:33:18;8.47;;;2.50;;
10823;SDS011;39116;59.332;18.034;2022-12-19T02:34:22;9.87;;;2.50;;
10823;SDS011;39116;59.332;18.034;2022-12-19T02:35:30;8.00;;;2.23;;
10823;SDS011;39116;59.332;18.034;2022-12-19T02:36:35;8.40;;;2.10;;
10823;SDS011;39116;59.332;18.034;2022-12-19T02:37:39;5.83;;;2.13;;
10823;SDS011;39116;59.332;18.034;2022-12-19T02:38:46;6.30;;;2.17;;
10823;SDS011;39116;59.332;18.034;2022-12-19T02:39:48;8.30;;;2.30;;
10823;SDS011;39116;59.332;18.034;2022-12-19T02:40:54;7.10;;;2.10;;
10823;SDS011;39116;59.332;18.034;2022-12-19T02:41:56;4.43;;;1.90;;
10823;SDS011;39116;59.332;18.034;2022-12-19T02:42:58;8.90;;;2.27;;
10823;SDS011;39116;59.332;18.034;2022-12-19T02:43:59;6.97;;;2.40;;
10823;SDS011;39116;59.332;18.034;2022-12-19T02:45:01;6.30;;;1.90;;
10823;SDS011;39116;59.332;18.034;2022-12-19T02:46:02;6.70;;;2.17;;
10823;SDS011;39116;59.332;18.034;2022-12-19T02:47:06;7.53;;;2.73;;
10823;SDS011;39116;59.332;18.034;2022-12-19T02:48:07;6.57;;;1.97;;
10823;SDS011;39116;59.332;18.034;2022-12-19T02:49:09;4.57;;;1.97;;
10823;SDS011;39116;59.332;18.034;2022-12-19T02:50:11;7.53;;;2.27;;
10823;SDS011;39116;59.332;18.034;2022-12-19T02:51:12;8.33;;;2.13;;
10823;SDS011;39116;59.332;18.034;2022-12-19T02:53:29;9.77;;;2.37;;
10823;SDS011;39116;59.332;18.034;2022-12-19T02:54:30;7.53;;;2.20;;
10823;SDS011;39116;59.332;18.034;2022-12-19T02:55:32;4.97;;;1.90;;
10823;SDS011;39116;59.332;18.034;2022-12-19T02:56:39;10.10;;;2.30;;
10823;SDS011;39116;59.332;18.034;2022-12-19T02:57:47;10.77;;;2.40;;
10823;SDS011;39116;59.332;18.034;2022-12-19T02:58:54;9.60;;;2.73;;
10823;SDS011;39116;59.332;18.034;2022-12-19T03:00:01;10.73;;;2.40;;
10823;SDS011;39116;59.332;18.034;2022-12-19T03:01:06;6.30;;;2.47;;
10823;SDS011;39116;59.332;18.034;2022-12-19T03:02:14;7.67;;;2.47;;
10823;SDS011;39116;59.332;18.034;2022-12-19T03:03:20;7.20;;;2.07;;
10823;SDS011;39116;59.332;18.034;2022-12-19T03:04:26;6.33;;;2.77;;
10823;SDS011;39116;59.332;18.034;2022-12-19T03:05:30;11.27;;;2.73;;
10823;SDS011;39116;59.332;18.034;2022-12-19T03:06:37;9.10;;;2.53;;
10823;SDS011;39116;59.332;18.034;2022-12-19T03:07:41;6.80;;;2.20;;
10823;SDS011;39116;59.332;18.034;2022-12-19T03:08:45;7.57;;;1.90;;
10823;SDS011;39116;59.332;18.034;2022-12-19T03:09:49;9.23;;;2.63;;
10823;SDS011;39116;59.332;18.034;2022-12-19T03:10:53;9.40;;;2.63;;
10823;SDS011;39116;59.332;18.034;2022-12-19T03:11:58;9.93;;;2.43;;
10823;SDS011;39116;59.332;18.034;2022-12-19T03:13:03;8.07;;;2.47;;
10823;SDS011;39116;59.332;18.034;2022-12-19T03:14:07;7.80;;;2.47;;
10823;SDS011;39116;59.332;18.034;2022-12-19T03:15:09;4.87;;;2.20;;
10823;SDS011;39116;59.332;18.034;2022-12-19T03:16:11;5.40;;;2.60;;
10823;SDS011;39116;59.332;18.034;2022-12-19T03:17:14;7.87;;;2.13;;
10823;SDS011;39116;59.332;18.034;2022-12-19T03:18:14;5.60;;;2.00;;
10823;SDS011;39116;59.332;18.034;2022-12-19T03:19:16;7.17;;;2.30;;
10823;SDS011;39116;59.332;18.034;2022-12-19T03:20:18;6.10;;;1.90;;
10823;SDS011;39116;59.332;18.034;2022-12-19T03:21:22;4.77;;;2.00;;
10823;SDS011;39116;59.332;18.034;2022-12-19T03:22:24;6.57;;;2.70;;
10823;SDS011;39116;59.332;18.034;2022-12-19T03:23:26;6.53;;;1.90;;
10823;SDS011;39116;59.332;18.034;2022-12-19T03:24:26;6.63;;;2.37;;
10823;SDS011;39116;59.332;18.034;2022-12-19T03:25:28;4.33;;;2.00;;
10823;SDS011;39116;59.332;18.034;2022-12-19T03:26:30;9.40;;;2.40;;
10823;SDS011;39116;59.332;18.034;2022-12-19T03:27:33;7.10;;;2.60;;
10823;SDS011;39116;59.332;18.034;2022-12-19T03:28:37;7.63;;;2.33;;
10823;SDS011;39116;59.332;18.034;2022-12-19T03:29:41;7.93;;;2.50;;
10823;SDS011;39116;59.332;18.034;2022-12-19T03:30:42;8.97;;;2.73;;
10823;SDS011;39116;59.332;18.034;2022-12-19T03:31:45;9.77;;;2.40;;
10823;SDS011;39116;59.332;18.034;2022-12-19T03:32:47;5.67;;;1.97;;
10823;SDS011;39116;59.332;18.034;2022-12-19T03:33:50;8.03;;;2.43;;
10823;SDS011;39116;59.332;18.034;2022-12-19T03:34:56;7.43;;;2.30;;
10823;SDS011;39116;59.332;18.034;2022-12-19T03:35:59;6.67;;;2.47;;
10823;SDS011;39116;59.332;18.034;2022-12-19T03:37:01;7.80;;;2.37;;
10823;SDS011;39116;59.332;18.034;2022-12-19T03:38:03;8.23;;;2.17;;
10823;SDS011;39116;59.332;18.034;2022-12-19T03:39:04;7.93;;;2.20;;
10823;SDS011;39116;59.332;18.034;2022-12-19T03:40:08;7.10;;;2.00;;
10823;SDS011;39116;59.332;18.034;2022-12-19T03:41:10;4.83;;;2.00;;
10823;SDS011;39116;59.332;18.034;2022-12-19T03:42:12;7.17;;;1.90;;
10823;SDS011;39116;59.332;18.034;2022-12-19T03:43:32;6.43;;;2.30;;
10823;SDS011;39116;59.332;18.034;2022-12-19T03:44:34;7.57;;;2.43;;
10823;SDS011;39116;59.332;18.034;2022-12-19T03:45:39;7.30;;;2.20;;
10823;SDS011;39116;59.332;18.034;2022-12-19T03:46:43;5.37;;;2.07;;
10823;SDS011;39116;59.332;18.034;2022-12-19T03:47:46;7.70;;;2.07;;
10823;SDS011;39116;59.332;18.034;2022-12-19T03:48:50;8.40;;;2.13;;
10823;SDS011;39116;59.332;18.034;2022-12-19T03:49:51;5.40;;;2.30;;
10823;SDS011;39116;59.332;18.034;2022-12-19T03:50:56;10.23;;;2.43;;
10823;SDS011;39116;59.332;18.034;2022-12-19T03:52:01;5.97;;;2.23;;
10823;SDS011;39116;59.332;18.034;2022-12-19T03:53:08;7.70;;;2.03;;
10823;SDS011;39116;59.332;18.034;2022-12-19T03:54:14;6.83;;;2.10;;
10823;SDS011;39116;59.332;18.034;2022-12-19T03:55:17;7.93;;;2.53;;
10823;SDS011;39116;59.332;18.034;2022-12-19T03:56:21;5.30;;;2.03;;
10823;SDS011;39116;59.332;18.034;2022-12-19T03:57:24;6.23;;;2.00;;
10823;SDS011;39116;59.332;18.034;2022-12-19T03:58:28;8.10;;;2.57;;
10823;SDS011;39116;59.332;18.034;2022-12-19T03:59:33;4.93;;;2.20;;
10823;SDS011;39116;59.332;18.034;2022-12-19T04:00:35;4.97;;;2.17;;
10823;SDS011;39116;59.332;18.034;2022-12-19T04:01:38;8.80;;;2.53;;
10823;SDS011;39116;59.332;18.034;2022-12-19T04:02:40;7.20;;;2.00;;
10823;SDS011;39116;59.332;18.034;2022-12-19T04:03:42;7.20;;;2.23;;
10823;SDS011;39116;59.332;18.034;2022-12-19T04:04:45;7.70;;;2.37;;
10823;SDS011;39116;59.332;18.034;2022-12-19T04:05:47;6.43;;;2.43;;
10823;SDS011;39116;59.332;18.034;2022-12-19T04:06:48;8.00;;;2.73;;
10823;SDS011;39116;59.332;18.034;2022-12-19T04:07:50;10.97;;;2.80;;
10823;SDS011;39116;59.332;18.034;2022-12-19T04:08:52;5.27;;;2.20;;
10823;SDS011;39116;59.332;18.034;2022-12-19T04:09:54;8.83;;;2.70;;
10823;SDS011;39116;59.332;18.034;2022-12-19T04:10:58;6.20;;;2.37;;
10823;SDS011;39116;59.332;18.034;2022-12-19T04:12:02;5.50;;;2.37;;
10823;SDS011;39116;59.332;18.034;2022-12-19T04:13:04;5.43;;;2.10;;
10823;SDS011;39116;59.332;18.034;2022-12-19T04:14:08;7.23;;;2.27;;
10823;SDS011;39116;59.332;18.034;2022-12-19T04:15:10;8.40;;;2.57;;
10823;SDS011;39116;59.332;18.034;2022-12-19T04:16:14;13.90;;;3.00;;
10823;SDS011;39116;59.332;18.034;2022-12-19T04:17:18;8.03;;;2.47;;
10823;SDS011;39116;59.332;18.034;2022-12-19T04:18:21;7.83;;;2.90;;
10823;SDS011;39116;59.332;18.034;2022-12-19T04:19:23;5.43;;;2.30;;
10823;SDS011;39116;59.332;18.034;2022-12-19T04:20:30;8.23;;;2.40;;
10823;SDS011;39116;59.332;18.034;2022-12-19T04:21:31;9.67;;;2.73;;
10823;SDS011;39116;59.332;18.034;2022-12-19T04:22:36;4.77;;;2.47;;
10823;SDS011;39116;59.332;18.034;2022-12-19T04:23:40;6.80;;;2.93;;
10823;SDS011;39116;59.332;18.034;2022-12-19T04:24:42;10.23;;;2.63;;
10823;SDS011;39116;59.332;18.034;2022-12-19T04:25:45;8.45;;;2.97;;
10823;SDS011;39116;59.332;18.034;2022-12-19T04:26:48;8.83;;;3.53;;
10823;SDS011;39116;59.332;18.034;2022-12-19T04:27:51;8.53;;;3.23;;
10823;SDS011;39116;59.332;18.034;2022-12-19T04:28:54;8.93;;;3.57;;
10823;SDS011;39116;59.332;18.034;2022-12-19T04:29:55;8.33;;;3.47;;
10823;SDS011;39116;59.332;18.034;2022-12-19T04:30:58;9.70;;;3.67;;
10823;SDS011;39116;59.332;18.034;2022-12-19T04:32:00;9.60;;;4.47;;
10823;SDS011;39116;59.332;18.034;2022-12-19T04:33:02;9.70;;;4.17;;
10823;SDS011;39116;59.332;18.034;2022-12-19T04:34:02;15.87;;;4.43;;
10823;SDS011;39116;59.332;18.034;2022-12-19T04:35:04;9.93;;;3.70;;
10823;SDS011;39116;59.332;18.034;2022-12-19T04:36:06;8.80;;;4.17;;
10823;SDS011;39116;59.332;18.034;2022-12-19T04:37:09;10.40;;;3.63;;
10823;SDS011;39116;59.332;18.034;2022-12-19T04:38:10;8.07;;;3.73;;
10823;SDS011;39116;59.332;18.034;2022-12-19T04:39:11;10.63;;;3.47;;
10823;SDS011;39116;59.332;18.034;2022-12-19T04:40:13;8.13;;;3.90;;
10823;SDS011;39116;59.332;18.034;2022-12-19T04:41:13;11.77;;;3.63;;
10823;SDS011;39116;59.332;18.034;2022-12-19T04:42:14;15.43;;;4.20;;
10823;SDS011;39116;59.332;18.034;2022-12-19T04:43:15;7.40;;;3.87;;
10823;SDS011;39116;59.332;18.034;2022-12-19T04:44:17;8.30;;;3.93;;
10823;SDS011;39116;59.332;18.034;2022-12-19T04:45:17;11.10;;;3.77;;
10823;SDS011;39116;59.332;18.034;2022-12-19T04:46:18;10.87;;;3.67;;
10823;SDS011;39116;59.332;18.034;2022-12-19T04:47:19;11.60;;;4.17;;
10823;SDS011;39116;59.332;18.034;2022-12-19T04:48:21;13.73;;;4.50;;
10823;SDS011;39116;59.332;18.034;2022-12-19T04:49:21;7.70;;;4.33;;
10823;SDS011;39116;59.332;18.034;2022-12-19T04:50:23;11.77;;;4.50;;
10823;SDS011;39116;59.332;18.034;2022-12-19T04:51:24;10.47;;;4.63;;
10823;SDS011;39116;59.332;18.034;2022-12-19T04:52:26;10.10;;;4.17;;
10823;SDS011;39116;59.332;18.034;2022-12-19T04:53:26;10.37;;;3.73;;
10823;SDS011;39116;59.332;18.034;2022-12-19T04:54:28;9.98;;;5.47;;
10823;SDS011;39116;59.332;18.034;2022-12-19T04:55:28;11.87;;;4.90;;
10823;SDS011;39116;59.332;18.034;2022-12-19T04:56:30;11.83;;;5.20;;
10823;SDS011;39116;59.332;18.034;2022-12-19T04:57:30;16.03;;;5.50;;
10823;SDS011;39116;59.332;18.034;2022-12-19T04:58:33;12.67;;;5.10;;
10823;SDS011;39116;59.332;18.034;2022-12-19T04:59:33;13.10;;;5.20;;
10823;SDS011;39116;59.332;18.034;2022-12-19T05:00:35;11.33;;;5.17;;
10823;SDS011;39116;59.332;18.034;2022-12-19T05:01:35;11.40;;;4.93;;
10823;SDS011;39116;59.332;18.034;2022-12-19T05:02:37;13.13;;;5.13;;
10823;SDS011;39116;59.332;18.034;2022-12-19T05:03:38;11.77;;;5.13;;
10823;SDS011;39116;59.332;18.034;2022-12-19T05:04:39;10.53;;;5.13;;
10823;SDS011;39116;59.332;18.034;2022-12-19T05:05:40;13.67;;;5.47;;
10823;SDS011;39116;59.332;18.034;2022-12-19T05:06:43;13.07;;;5.67;;
10823;SDS011;39116;59.332;18.034;2022-12-19T05:07:43;13.27;;;5.40;;
10823;SDS011;39116;59.332;18.034;2022-12-19T05:08:46;13.70;;;5.73;;
10823;SDS011;39116;59.332;18.034;2022-12-19T05:09:46;15.43;;;5.00;;
10823;SDS011;39116;59.332;18.034;2022-12-19T05:10:48;12.47;;;5.97;;
10823;SDS011;39116;59.332;18.034;2022-12-19T05:11:48;13.67;;;5.53;;
10823;SDS011;39116;59.332;18.034;2022-12-19T05:12:49;16.20;;;5.77;;
10823;SDS011;39116;59.332;18.034;2022-12-19T05:13:50;13.98;;;6.20;;
10823;SDS011;39116;59.332;18.034;2022-12-19T05:14:51;14.40;;;6.60;;
10823;SDS011;39116;59.332;18.034;2022-12-19T05:15:55;17.20;;;6.30;;
10823;SDS011;39116;59.332;18.034;2022-12-19T05:16:57;15.23;;;7.10;;
10823;SDS011;39116;59.332;18.034;2022-12-19T05:17:57;14.03;;;6.40;;
10823;SDS011;39116;59.332;18.034;2022-12-19T05:18:59;13.60;;;6.75;;
10823;SDS011;39116;59.332;18.034;2022-12-19T05:20:00;16.48;;;6.88;;
10823;SDS011;39116;59.332;18.034;2022-12-19T05:21:02;13.70;;;6.90;;
10823;SDS011;39116;59.332;18.034;2022-12-19T05:22:04;16.60;;;7.83;;
10823;SDS011;39116;59.332;18.034;2022-12-19T05:23:05;15.83;;;7.40;;
10823;SDS011;39116;59.332;18.034;2022-12-19T05:24:06;16.67;;;7.60;;
10823;SDS011;39116;59.332;18.034;2022-12-19T05:25:08;18.23;;;7.33;;
10823;SDS011;39116;59.332;18.034;2022-12-19T05:26:09;16.37;;;8.10;;
10823;SDS011;39116;59.332;18.034;2022-12-19T05:27:11;14.53;;;7.87;;
10823;SDS011;39116;59.332;18.034;2022-12-19T05:28:12;14.95;;;7.82;;
10823;SDS011;39116;59.332;18.034;2022-12-19T05:29:13;16.33;;;8.17;;
10823;SDS011;39116;59.332;18.034;2022-12-19T05:30:14;16.08;;;8.73;;
10823;SDS011;39116;59.332;18.034;2022-12-19T05:31:17;16.88;;;8.10;;
10823;SDS011;39116;59.332;18.034;2022-12-19T05:32:18;17.25;;;8.93;;
10823;SDS011;39116;59.332;18.034;2022-12-19T05:33:20;18.87;;;8.80;;
10823;SDS011;39116;59.332;18.034;2022-12-19T05:34:20;19.63;;;9.13;;
10823;SDS011;39116;59.332;18.034;2022-12-19T05:35:22;18.80;;;8.20;;
10823;SDS011;39116;59.332;18.034;2022-12-19T05:36:22;18.10;;;8.77;;
10823;SDS011;39116;59.332;18.034;2022-12-19T05:37:25;18.47;;;8.70;;
10823;SDS011;39116;59.332;18.034;2022-12-19T05:38:26;14.70;;;8.67;;
10823;SDS011;39116;59.332;18.034;2022-12-19T05:39:27;15.02;;;8.30;;
10823;SDS011;39116;59.332;18.034;2022-12-19T05:40:28;16.73;;;8.80;;
10823;SDS011;39116;59.332;18.034;2022-12-19T05:41:30;22.37;;;9.47;;
10823;SDS011;39116;59.332;18.034;2022-12-19T05:42:30;19.50;;;9.50;;
10823;SDS011;39116;59.332;18.034;2022-12-19T05:43:31;18.73;;;9.07;;
10823;SDS011;39116;59.332;18.034;2022-12-19T05:44:32;18.97;;;10.27;;
10823;SDS011;39116;59.332;18.034;2022-12-19T05:45:33;20.90;;;9.93;;
10823;SDS011;39116;59.332;18.034;2022-12-19T05:46:34;22.33;;;10.07;;
10823;SDS011;39116;59.332;18.034;2022-12-19T05:47:35;20.80;;;10.57;;
10823;SDS011;39116;59.332;18.034;2022-12-19T05:48:36;21.07;;;10.17;;
10823;SDS011;39116;59.332;18.034;2022-12-19T05:49:39;20.10;;;9.77;;
10823;SDS011;39116;59.332;18.034;2022-12-19T05:50:39;20.97;;;10.03;;
10823;SDS011;39116;59.332;18.034;2022-12-19T05:51:41;20.27;;;10.97;;
10823;SDS011;39116;59.332;18.034;2022-12-19T05:52:43;17.55;;;10.05;;
10823;SDS011;39116;59.332;18.034;2022-12-19T05:53:45;21.63;;;11.47;;
10823;SDS011;39116;59.332;18.034;2022-12-19T05:54:45;24.57;;;11.00;;
10823;SDS011;39116;59.332;18.034;2022-12-19T05:55:47;18.13;;;9.70;;
10823;SDS011;39116;59.332;18.034;2022-12-19T05:56:47;19.67;;;11.27;;
10823;SDS011;39116;59.332;18.034;2022-12-19T05:57:49;22.48;;;11.82;;
10823;SDS011;39116;59.332;18.034;2022-12-19T05:58:49;19.35;;;10.60;;
10823;SDS011;39116;59.332;18.034;2022-12-19T05:59:51;25.38;;;11.20;;
10823;SDS011;39116;59.332;18.034;2022-12-19T06:00:51;19.75;;;10.85;;
10823;SDS011;39116;59.332;18.034;2022-12-19T06:01:53;26.70;;;11.40;;
10823;SDS011;39116;59.332;18.034;2022-12-19T06:02:53;21.42;;;11.88;;
10823;SDS011;39116;59.332;18.034;2022-12-19T06:03:55;23.08;;;11.15;;
10823;SDS011;39116;59.332;18.034;2022-12-19T06:04:55;22.67;;;12.30;;
10823;SDS011;39116;59.332;18.034;2022-12-19T06:05:56;26.30;;;12.80;;
10823;SDS011;39116;59.332;18.034;2022-12-19T06:06:57;22.63;;;12.83;;
10823;SDS011;39116;59.332;18.034;2022-12-19T06:08:00;21.30;;;12.05;;
10823;SDS011;39116;59.332;18.034;2022-12-19T06:09:00;22.03;;;13.00;;
10823;SDS011;39116;59.332;18.034;2022-12-19T06:10:02;22.93;;;12.37;;
10823;SDS011;39116;59.332;18.034;2022-12-19T06:11:04;22.60;;;12.57;;
10823;SDS011;39116;59.332;18.034;2022-12-19T06:12:06;26.73;;;12.73;;
10823;SDS011;39116;59.332;18.034;2022-12-19T06:13:06;24.90;;;13.00;;
10823;SDS011;39116;59.332;18.034;2022-12-19T06:14:08;21.10;;;12.50;;
10823;SDS011;39116;59.332;18.034;2022-12-19T06:15:09;24.63;;;12.50;;